Terminal Aerodrome Forecast
Issued by NWS

Home | Current Version | Previous Version | Text Only | Print | Product List | Glossary On
Versions: 1 2 3 4 5 6 7 8 9 10 11 12 13 14 15 16
388
FTUS43 KGRR 061148
TAFLAN
TAF
KLAN 061148Z 0612/0712 09008KT 6SM BR SCT015 OVC200
      TEMPO 0612/0615 BKN015
     FM061500 09008KT 6SM HZ VCSH OVC035
     FM061700 12007KT P6SM VCSH OVC035
     FM062100 22008KT P6SM BKN030
     FM070100 26010G20KT P6SM BKN035
     FM070600 26010G20KT P6SM OVC030=

USA.gov is the U.S. government's official web portal to all federal, state and local government web resources and services.